createdAt,value
2022-12-22T00:00:04.955Z,7.72
2022-12-22T00:02:58.091Z,7.68
2022-12-22T00:05:44.422Z,7.57
2022-12-22T00:08:29.621Z,7.70
2022-12-22T00:11:16.043Z,7.43
2022-12-22T00:14:03.143Z,7.80
2022-12-22T00:16:51.364Z,7.90
2022-12-22T00:19:37.186Z,7.65
2022-12-22T00:22:35.059Z,7.45
2022-12-22T00:25:21.716Z,8.13
2022-12-22T00:28:06.945Z,7.55
2022-12-22T00:30:52.175Z,7.43
2022-12-22T00:33:38.877Z,7.72
2022-12-22T00:36:26.500Z,7.18
2022-12-22T00:39:11.915Z,7.05
2022-12-22T00:41:57.028Z,7.18
2022-12-22T00:44:42.269Z,7.45
2022-12-22T00:47:42.178Z,7.90
2022-12-22T00:50:28.063Z,7.43
2022-12-22T00:53:13.824Z,7.75
2022-12-22T00:55:58.982Z,7.90
2022-12-22T00:58:44.261Z,7.75
2022-12-22T01:01:31.233Z,7.95
2022-12-22T01:04:16.377Z,7.47
2022-12-22T01:07:01.720Z,7.20
2022-12-22T01:09:47.117Z,8.13
2022-12-22T01:12:40.865Z,8.05
2022-12-22T01:15:35.241Z,6.93
2022-12-22T01:18:20.971Z,7.25
2022-12-22T01:21:06.054Z,8.10
2022-12-22T01:23:51.139Z,7.30
2022-12-22T01:26:36.461Z,8.10
2022-12-22T01:29:22.321Z,8.30
2022-12-22T01:32:07.523Z,8.20
2022-12-22T01:34:54.513Z,8.05
2022-12-22T01:37:39.711Z,7.85
2022-12-22T01:40:28.230Z,8.35
2022-12-22T01:43:13.430Z,8.07
2022-12-22T01:45:58.652Z,8.27
2022-12-22T01:48:48.877Z,7.78
2022-12-22T01:51:45.867Z,7.38
2022-12-22T01:54:32.745Z,9.00
2022-12-22T01:57:18.399Z,7.97
2022-12-22T02:00:03.927Z,8.32
2022-12-22T02:02:57.347Z,8.75
2022-12-22T02:05:42.487Z,8.63
2022-12-22T02:08:47.448Z,9.30
2022-12-22T02:11:38.839Z,9.10
2022-12-22T02:14:42.831Z,9.00
2022-12-22T02:17:49.903Z,8.88
2022-12-22T02:21:07.424Z,9.07
2022-12-22T02:24:30.331Z,10.07
2022-12-22T02:27:18.919Z,11.20
2022-12-22T02:30:14.449Z,9.85
2022-12-22T02:33:09.163Z,10.27
2022-12-22T02:36:27.250Z,10.18
2022-12-22T02:39:33.230Z,10.07
2022-12-22T02:42:29.481Z,10.63
2022-12-22T02:45:43.002Z,10.18
2022-12-22T02:51:37.831Z,10.18
2022-12-22T02:54:25.770Z,10.30
2022-12-22T02:57:11.330Z,10.15
2022-12-22T02:59:56.498Z,11.05
2022-12-22T03:02:41.661Z,11.30
2022-12-22T03:05:26.813Z,12.15
2022-12-22T03:08:12.690Z,10.45
2022-12-22T03:10:58.013Z,12.95
2022-12-22T03:13:43.030Z,12.77
2022-12-22T03:16:28.290Z,13.02
2022-12-22T03:19:13.498Z,12.23
2022-12-22T03:21:59.360Z,12.23
2022-12-22T03:24:44.695Z,13.00
2022-12-22T03:27:11.336Z,12.48
2022-12-22T03:29:37.916Z,13.65
2022-12-22T03:32:04.896Z,14.10
2022-12-22T03:34:31.410Z,14.73
2022-12-22T03:36:57.925Z,14.52
2022-12-22T03:39:25.467Z,14.68
2022-12-22T03:42:10.581Z,13.90
2022-12-22T03:44:55.647Z,14.02
2022-12-22T03:47:23.181Z,14.07
2022-12-22T03:49:49.745Z,15.10
2022-12-22T03:52:16.250Z,14.88
2022-12-22T03:54:42.782Z,14.63
2022-12-22T03:57:09.292Z,15.85
2022-12-22T03:59:35.799Z,14.88
2022-12-22T04:02:02.634Z,14.82
2022-12-22T04:04:29.311Z,15.15
2022-12-22T04:06:55.926Z,16.88
2022-12-22T04:09:22.708Z,15.50
2022-12-22T04:12:07.939Z,15.98
2022-12-22T04:14:35.181Z,17.23
2022-12-22T04:17:03.478Z,17.60
2022-12-22T04:19:30.620Z,16.40
2022-12-22T04:21:57.219Z,16.15
2022-12-22T04:24:23.996Z,16.52
2022-12-22T04:26:51.099Z,17.50
2022-12-22T04:29:17.713Z,16.65
2022-12-22T04:31:44.320Z,16.25
2022-12-22T04:34:11.138Z,16.50
2022-12-22T04:36:37.756Z,17.52
2022-12-22T04:39:04.338Z,17.17
2022-12-22T04:41:30.961Z,15.27
2022-12-22T04:43:57.552Z,14.75
2022-12-22T04:46:24.156Z,14.38
2022-12-22T04:48:54.623Z,15.48
2022-12-22T04:51:26.135Z,13.70
2022-12-22T04:53:52.710Z,15.45
2022-12-22T04:56:19.234Z,16.27
2022-12-22T04:58:45.792Z,15.70
2022-12-22T05:01:15.808Z,15.20
2022-12-22T05:03:42.943Z,14.50
2022-12-22T05:06:11.423Z,14.38
2022-12-22T05:08:38.454Z,15.77
2022-12-22T05:11:05.366Z,14.65
2022-12-22T05:13:32.531Z,16.05
2022-12-22T05:16:11.774Z,14.13
2022-12-22T05:18:39.190Z,15.18
2022-12-22T05:21:14.898Z,14.35
2022-12-22T05:23:41.948Z,14.35
2022-12-22T05:26:08.862Z,14.10
2022-12-22T05:28:35.570Z,16.08
2022-12-22T05:31:10.926Z,14.77
2022-12-22T05:33:37.633Z,14.13
2022-12-22T05:36:04.488Z,13.85
2022-12-22T05:38:31.096Z,15.02
2022-12-22T05:41:03.580Z,13.50
2022-12-22T05:43:30.827Z,12.18
2022-12-22T05:45:58.601Z,13.68
2022-12-22T05:48:29.649Z,12.10
2022-12-22T05:51:00.758Z,11.70
2022-12-22T05:53:27.290Z,13.82
2022-12-22T05:55:53.853Z,12.60
2022-12-22T05:58:20.440Z,14.55
2022-12-22T06:00:48.015Z,13.35
2022-12-22T06:03:14.649Z,12.73
2022-12-22T06:05:41.565Z,12.25
2022-12-22T06:08:08.159Z,14.32
2022-12-22T06:10:34.651Z,16.08
2022-12-22T06:13:01.488Z,15.95
2022-12-22T06:15:28.022Z,17.25
2022-12-22T06:17:54.574Z,17.52
2022-12-22T06:20:21.118Z,15.18
2022-12-22T06:22:47.618Z,15.68
2022-12-22T06:25:18.438Z,16.73
2022-12-22T06:27:46.333Z,15.18
2022-12-22T06:30:13.558Z,14.80
2022-12-22T06:32:40.144Z,15.02
2022-12-22T06:35:09.701Z,15.93
2022-12-22T06:37:38.642Z,14.77
2022-12-22T06:40:06.128Z,16.00
2022-12-22T06:42:52.145Z,18.75
2022-12-22T06:45:18.764Z,16.23
2022-12-22T06:47:45.370Z,16.58
2022-12-22T06:50:11.928Z,16.58
2022-12-22T06:52:39.591Z,14.00
2022-12-22T06:55:06.360Z,15.85
2022-12-22T06:57:32.874Z,16.48
2022-12-22T06:59:59.428Z,15.60
2022-12-22T07:02:26.133Z,16.27
2022-12-22T07:04:52.774Z,16.70
2022-12-22T07:07:19.401Z,15.75
2022-12-22T07:09:46.921Z,16.67
2022-12-22T07:12:13.505Z,17.58
2022-12-22T07:14:40.128Z,20.00
2022-12-22T07:17:09.056Z,19.90
2022-12-22T07:19:35.727Z,19.45
2022-12-22T07:22:02.271Z,18.70
2022-12-22T07:24:29.395Z,20.08
2022-12-22T07:26:56.192Z,20.40
2022-12-22T07:29:23.475Z,19.83
2022-12-22T07:31:50.751Z,20.38
2022-12-22T07:34:17.377Z,20.73
2022-12-22T07:36:44.159Z,20.92
2022-12-22T07:39:12.231Z,21.98
2022-12-22T07:41:57.316Z,20.95
2022-12-22T07:44:24.458Z,20.40
2022-12-22T07:46:51.233Z,20.65
2022-12-22T07:49:36.506Z,20.27
2022-12-22T07:52:03.673Z,20.52
2022-12-22T07:54:30.317Z,20.63
2022-12-22T07:56:56.995Z,20.23
2022-12-22T07:59:23.675Z,20.23
2022-12-22T08:01:50.280Z,21.50
2022-12-22T08:04:17.164Z,21.30
2022-12-22T08:06:43.840Z,20.65
2022-12-22T08:09:15.143Z,22.50
2022-12-22T08:11:41.762Z,21.52
2022-12-22T08:14:08.405Z,22.10
2022-12-22T08:16:35.004Z,22.77
2022-12-22T08:19:01.490Z,23.48
2022-12-22T08:21:27.955Z,22.08
2022-12-22T08:23:54.427Z,22.63
2022-12-22T08:26:28.464Z,22.25
2022-12-22T08:29:10.429Z,23.52
2022-12-22T08:31:37.121Z,24.10
2022-12-22T08:34:07.711Z,23.48
2022-12-22T08:36:37.988Z,26.02
2022-12-22T08:39:05.180Z,24.02
2022-12-22T08:41:49.913Z,23.00
2022-12-22T08:44:23.317Z,23.90
2022-12-22T08:46:50.262Z,24.13
2022-12-22T08:49:17.487Z,24.55
2022-12-22T08:51:44.431Z,25.52
2022-12-22T08:54:11.238Z,24.73
2022-12-22T08:56:38.048Z,24.13
2022-12-22T08:59:07.696Z,23.88
2022-12-22T09:01:37.030Z,22.88
2022-12-22T09:04:04.623Z,23.90
2022-12-22T09:06:40.179Z,20.83
2022-12-22T09:09:10.113Z,22.00
2022-12-22T09:11:36.666Z,21.55
2022-12-22T09:14:04.188Z,21.58
2022-12-22T09:16:32.712Z,20.85
2022-12-22T09:18:59.810Z,21.08
2022-12-22T09:21:26.654Z,21.98
2022-12-22T09:23:55.148Z,22.00
2022-12-22T09:26:23.843Z,22.05
2022-12-22T09:28:51.199Z,22.50
2022-12-22T09:31:19.850Z,20.92
2022-12-22T09:33:46.564Z,23.50
2022-12-22T09:36:17.316Z,20.33
2022-12-22T09:38:44.134Z,21.15
2022-12-22T09:41:21.550Z,21.77
2022-12-22T09:43:48.428Z,20.92
2022-12-22T09:46:30.902Z,19.70
2022-12-22T09:48:58.630Z,18.27
2022-12-22T09:51:27.357Z,18.35
2022-12-22T09:53:58.804Z,18.65
2022-12-22T09:56:27.607Z,19.50
2022-12-22T09:58:54.281Z,19.30
2022-12-22T10:01:45.288Z,25.90
2022-12-22T10:04:27.800Z,28.58
2022-12-22T10:07:16.970Z,22.45
2022-12-22T10:09:50.178Z,18.00
2022-12-22T10:12:24.519Z,17.73
2022-12-22T10:14:53.650Z,18.20
2022-12-22T10:17:29.631Z,18.00
2022-12-22T10:20:19.723Z,18.67
2022-12-22T10:22:52.516Z,18.05
2022-12-22T10:25:51.867Z,17.17
2022-12-22T10:28:23.344Z,16.38
2022-12-22T10:30:50.132Z,16.42
2022-12-22T10:33:18.853Z,16.10
2022-12-22T10:35:53.240Z,17.55
2022-12-22T10:38:25.861Z,16.20
2022-12-22T10:43:35.992Z,16.55
2022-12-22T10:46:04.014Z,14.75
2022-12-22T10:48:39.183Z,15.73
2022-12-22T10:51:08.492Z,14.77
2022-12-22T10:53:43.428Z,15.13
2022-12-22T10:56:20.947Z,15.93
2022-12-22T10:58:54.087Z,15.40
2022-12-22T11:01:30.214Z,15.25
2022-12-22T11:03:58.445Z,15.65
2022-12-22T11:06:25.127Z,16.60
2022-12-22T11:08:52.144Z,14.20
2022-12-22T11:11:33.569Z,16.25
2022-12-22T11:14:15.451Z,16.92
2022-12-22T11:17:03.162Z,19.53
2022-12-22T11:20:03.443Z,18.92
2022-12-22T11:22:55.982Z,18.65
2022-12-22T11:25:56.498Z,19.73
2022-12-22T11:29:00.502Z,17.80
2022-12-22T11:32:08.542Z,18.58
2022-12-22T11:35:02.755Z,18.10
2022-12-22T11:37:48.338Z,17.80
2022-12-22T11:40:31.953Z,18.30
2022-12-22T11:43:35.638Z,16.08
2022-12-22T11:46:24.014Z,17.00
2022-12-22T11:48:50.588Z,15.27
2022-12-22T11:51:46.259Z,14.07
2022-12-22T11:54:39.966Z,12.07
2022-12-22T11:57:25.213Z,11.40
2022-12-22T12:00:01.057Z,10.45
2022-12-22T12:03:04.828Z,12.00
2022-12-22T12:05:42.868Z,10.93
2022-12-22T12:08:24.767Z,11.80
2022-12-22T12:10:57.853Z,11.00
2022-12-22T12:13:30.111Z,10.70
2022-12-22T12:16:20.041Z,11.55
2022-12-22T12:19:24.754Z,11.30
2022-12-22T12:21:57.132Z,10.57
2022-12-22T12:24:23.543Z,12.07
2022-12-22T12:27:00.848Z,10.07
2022-12-22T12:29:34.459Z,10.30
2022-12-22T12:32:18.655Z,9.60
2022-12-22T12:35:00.861Z,9.60
2022-12-22T12:37:37.877Z,7.90
2022-12-22T12:40:16.578Z,9.63
2022-12-22T12:42:45.421Z,12.82
2022-12-22T12:45:35.576Z,11.85
2022-12-22T12:48:20.437Z,14.65
2022-12-22T12:50:57.802Z,15.30
2022-12-22T12:53:29.072Z,17.60
2022-12-22T12:55:58.412Z,19.48
2022-12-22T12:58:40.068Z,19.60
2022-12-22T13:01:11.636Z,20.10
2022-12-22T13:06:51.665Z,17.52
2022-12-22T13:12:54.847Z,18.55
2022-12-22T13:15:36.861Z,18.30
2022-12-22T13:18:11.791Z,17.92
2022-12-22T13:20:38.897Z,18.67
2022-12-22T13:23:13.327Z,19.13
2022-12-22T13:26:00.460Z,19.33
2022-12-22T13:28:27.940Z,19.90
2022-12-22T13:31:01.430Z,19.52
2022-12-22T13:33:32.172Z,19.17
2022-12-22T13:35:59.805Z,18.83
2022-12-22T13:38:28.029Z,17.58
2022-12-22T13:40:55.022Z,18.85
2022-12-22T13:43:21.599Z,17.13
2022-12-22T13:45:54.574Z,17.00
2022-12-22T13:48:26.132Z,17.35
2022-12-22T13:50:55.502Z,16.92
2022-12-22T13:54:07.132Z,15.30
2022-12-22T13:56:36.979Z,15.45
2022-12-22T13:59:04.668Z,14.98
2022-12-22T14:01:31.286Z,14.95
2022-12-22T14:04:04.424Z,15.15
2022-12-22T14:06:38.689Z,15.38
2022-12-22T14:09:20.629Z,14.80
2022-12-22T14:12:02.260Z,13.40
2022-12-22T14:14:34.836Z,12.73
2022-12-22T14:19:33.009Z,14.73
2022-12-22T14:22:22.828Z,14.52
2022-12-22T14:24:58.601Z,12.32
2022-12-22T14:27:42.069Z,13.07
2022-12-22T14:30:17.614Z,14.02
2022-12-22T14:32:54.765Z,14.10
2022-12-22T14:35:21.933Z,14.40
2022-12-22T14:37:50.601Z,13.60
2022-12-22T14:40:35.567Z,14.68
2022-12-22T14:43:05.597Z,13.25
2022-12-22T14:45:32.992Z,12.88
2022-12-22T14:47:59.501Z,15.00
2022-12-22T14:50:28.009Z,14.30
2022-12-22T14:53:05.062Z,13.98
2022-12-22T14:55:39.521Z,16.25
2022-12-22T14:58:08.725Z,15.15
2022-12-22T15:01:13.712Z,16.40
2022-12-22T15:03:40.529Z,17.35
2022-12-22T15:06:23.110Z,16.00
2022-12-22T15:08:52.570Z,16.23
2022-12-22T15:11:21.669Z,16.30
2022-12-22T15:13:49.896Z,16.40
2022-12-22T15:16:19.901Z,17.10
2022-12-22T15:18:47.221Z,15.00
2022-12-22T15:21:16.122Z,16.23
2022-12-22T15:23:43.448Z,17.38
2022-12-22T15:26:10.634Z,17.00
2022-12-22T15:28:37.467Z,16.52
2022-12-22T15:31:11.451Z,17.70
2022-12-22T15:33:38.016Z,16.38
2022-12-22T15:36:06.244Z,18.25
2022-12-22T15:38:38.517Z,16.20
2022-12-22T15:41:06.197Z,15.20
2022-12-22T15:46:22.131Z,13.88
2022-12-22T15:48:48.881Z,13.20
2022-12-22T15:51:24.702Z,12.68
2022-12-22T15:53:51.711Z,12.70
2022-12-22T15:56:22.689Z,11.88
2022-12-22T15:58:49.615Z,12.27
2022-12-22T16:01:16.472Z,13.00
2022-12-22T16:03:48.718Z,12.73
2022-12-22T16:06:17.591Z,13.23
2022-12-22T16:08:55.329Z,13.88
2022-12-22T16:11:21.943Z,15.18
2022-12-22T16:13:50.150Z,14.93
2022-12-22T16:16:17.023Z,15.77
2022-12-22T16:18:43.603Z,15.90
2022-12-22T16:21:17.945Z,16.83
2022-12-22T16:23:47.474Z,15.85
2022-12-22T16:26:17.977Z,15.93
2022-12-22T16:28:44.594Z,17.63
2022-12-22T16:31:23.115Z,17.38
2022-12-22T16:33:50.487Z,17.23
2022-12-22T16:36:17.045Z,18.83
2022-12-22T16:38:52.062Z,19.00
2022-12-22T16:41:23.815Z,20.23
2022-12-22T16:43:51.769Z,18.90
2022-12-22T16:46:20.678Z,18.40
2022-12-22T16:48:56.700Z,17.75
2022-12-22T16:51:29.348Z,18.52
2022-12-22T16:56:26.593Z,16.67
2022-12-22T16:58:53.164Z,17.55
2022-12-22T17:01:41.461Z,19.15
2022-12-22T17:04:13.526Z,20.38
2022-12-22T17:06:41.538Z,19.45
2022-12-22T17:09:13.559Z,17.42
2022-12-22T17:11:40.162Z,17.27
2022-12-22T17:14:20.506Z,18.38
2022-12-22T17:16:46.981Z,18.17
2022-12-22T17:19:13.418Z,17.70
2022-12-22T17:21:40.000Z,19.17
2022-12-22T17:24:07.195Z,16.73
2022-12-22T17:26:36.571Z,17.42
2022-12-22T17:29:04.191Z,19.25
2022-12-22T17:31:30.770Z,37.45
2022-12-22T17:33:57.724Z,18.60
2022-12-22T17:36:37.197Z,18.95
2022-12-22T17:39:04.637Z,16.88
2022-12-22T17:41:31.447Z,17.02
2022-12-22T17:43:58.057Z,20.20
2022-12-22T17:46:24.800Z,20.67
2022-12-22T17:48:51.420Z,17.65
2022-12-22T17:51:29.310Z,16.92
2022-12-22T17:53:58.684Z,18.58
2022-12-22T17:56:27.475Z,17.58
2022-12-22T17:58:54.198Z,19.75
2022-12-22T18:01:22.035Z,17.40
2022-12-22T18:03:48.670Z,19.55
2022-12-22T18:06:18.402Z,15.55
2022-12-22T18:08:46.137Z,15.05
2022-12-22T18:11:13.074Z,14.40
2022-12-22T18:13:40.185Z,13.32
2022-12-22T18:16:09.134Z,14.07
2022-12-22T18:18:35.701Z,12.50
2022-12-22T18:21:05.788Z,12.20
2022-12-22T18:23:36.857Z,11.90
2022-12-22T18:26:06.112Z,12.77
2022-12-22T18:28:32.650Z,11.30
2022-12-22T18:30:59.316Z,11.80
2022-12-22T18:33:26.100Z,12.43
2022-12-22T18:35:52.911Z,13.48
2022-12-22T18:38:29.641Z,12.55
2022-12-22T18:40:56.709Z,11.20
2022-12-22T18:43:23.845Z,11.35
2022-12-22T18:45:50.423Z,11.30
2022-12-22T18:48:17.001Z,11.65
2022-12-22T18:50:43.603Z,11.07
2022-12-22T18:53:24.364Z,10.82
2022-12-22T18:55:50.919Z,9.98
2022-12-22T18:58:17.699Z,10.00
2022-12-22T19:00:44.680Z,9.45
2022-12-22T19:03:30.502Z,9.23
2022-12-22T19:05:58.030Z,9.50
2022-12-22T19:08:27.786Z,8.85
2022-12-22T19:11:05.001Z,9.23
2022-12-22T19:13:35.136Z,8.98
2022-12-22T19:16:02.318Z,9.15
2022-12-22T19:18:28.982Z,8.75
2022-12-22T19:20:56.225Z,8.27
2022-12-22T19:23:24.806Z,8.77
2022-12-22T19:25:53.755Z,8.85
2022-12-22T19:28:42.522Z,8.90
2022-12-22T19:31:20.673Z,7.75
2022-12-22T19:33:47.568Z,8.55
2022-12-22T19:36:17.006Z,8.35
2022-12-22T19:38:49.939Z,8.05
2022-12-22T19:41:36.770Z,8.95
2022-12-22T19:44:03.724Z,9.00
2022-12-22T19:46:34.121Z,10.68
2022-12-22T19:49:01.128Z,8.10
2022-12-22T19:51:28.605Z,8.10
2022-12-22T19:53:55.300Z,8.68
2022-12-22T19:56:28.090Z,8.68
2022-12-22T19:58:56.143Z,8.18
2022-12-22T20:01:22.875Z,7.70
2022-12-22T20:03:49.632Z,7.68
2022-12-22T20:06:17.587Z,7.80
2022-12-22T20:08:44.747Z,7.25
2022-12-22T20:11:18.212Z,7.40
2022-12-22T20:13:46.677Z,7.40
2022-12-22T20:16:14.795Z,7.53
2022-12-22T20:18:42.263Z,7.93
2022-12-22T20:21:25.657Z,7.18
2022-12-22T20:23:53.822Z,7.72
2022-12-22T20:26:24.761Z,7.28
2022-12-22T20:28:52.715Z,7.65
2022-12-22T20:31:22.631Z,7.10
2022-12-22T20:33:49.922Z,7.50
2022-12-22T20:36:23.791Z,7.22
2022-12-22T20:38:54.633Z,8.30
2022-12-22T20:41:21.883Z,7.90
2022-12-22T20:43:49.093Z,8.13
2022-12-22T20:46:19.797Z,8.88
2022-12-22T20:48:56.151Z,8.98
2022-12-22T20:51:25.102Z,9.30
2022-12-22T20:53:53.157Z,10.13
2022-12-22T20:56:31.726Z,9.25
2022-12-22T20:59:01.796Z,9.85
2022-12-22T21:01:28.608Z,10.77
2022-12-22T21:03:55.438Z,10.10
2022-12-22T21:06:26.553Z,9.88
2022-12-22T21:08:54.957Z,9.50
2022-12-22T21:11:21.981Z,9.95
2022-12-22T21:13:49.769Z,10.35
2022-12-22T21:16:19.288Z,9.20
2022-12-22T21:18:46.391Z,10.15
2022-12-22T21:21:13.103Z,10.15
2022-12-22T21:23:39.664Z,10.15
2022-12-22T21:26:30.917Z,8.88
2022-12-22T21:28:58.464Z,8.50
2022-12-22T21:31:25.066Z,8.88
2022-12-22T21:33:51.668Z,8.38
2022-12-22T21:36:31.551Z,8.30
2022-12-22T21:39:06.045Z,7.68
2022-12-22T21:41:50.898Z,7.78
2022-12-22T21:44:17.532Z,7.28
2022-12-22T21:46:45.698Z,8.50
2022-12-22T21:49:24.095Z,7.18
2022-12-22T21:51:52.046Z,7.18
2022-12-22T21:54:20.292Z,7.72
2022-12-22T21:56:47.704Z,8.60
2022-12-22T21:59:14.722Z,9.02
2022-12-22T22:01:42.791Z,6.80
2022-12-22T22:04:09.440Z,7.75
2022-12-22T22:06:36.080Z,8.32
2022-12-22T22:09:05.066Z,9.07
2022-12-22T22:11:33.149Z,7.97
2022-12-22T22:13:59.813Z,8.48
2022-12-22T22:16:26.471Z,7.97
2022-12-22T22:18:53.013Z,9.63
2022-12-22T22:21:19.549Z,8.15
2022-12-22T22:23:46.108Z,8.65
2022-12-22T22:26:12.594Z,8.48
2022-12-22T22:28:39.171Z,8.55
2022-12-22T22:31:10.446Z,10.00
2022-12-22T22:33:37.332Z,9.15
2022-12-22T22:36:06.240Z,7.82
2022-12-22T22:38:32.870Z,8.68
2022-12-22T22:40:59.592Z,9.60
2022-12-22T22:43:26.155Z,8.25
2022-12-22T22:45:52.676Z,8.30
2022-12-22T22:48:21.392Z,8.20
2022-12-22T22:50:48.873Z,7.90
2022-12-22T22:53:15.473Z,8.65
2022-12-22T22:55:42.109Z,10.20
2022-12-22T22:58:11.311Z,9.90
2022-12-22T23:00:38.553Z,10.32
2022-12-22T23:03:05.436Z,8.25
2022-12-22T23:05:32.565Z,10.18
2022-12-22T23:07:59.188Z,9.75
2022-12-22T23:10:25.859Z,9.02
2022-12-22T23:12:52.364Z,9.93
2022-12-22T23:15:19.032Z,10.32
2022-12-22T23:17:45.689Z,10.93
2022-12-22T23:20:12.403Z,13.38
2022-12-22T23:22:39.052Z,9.93
2022-12-22T23:25:05.860Z,10.32
2022-12-22T23:27:32.489Z,9.70
2022-12-22T23:29:58.992Z,11.32
2022-12-22T23:32:25.771Z,12.15
2022-12-22T23:34:52.334Z,12.32
2022-12-22T23:37:19.880Z,11.80
2022-12-22T23:39:46.777Z,11.45
2022-12-22T23:42:13.383Z,12.35
2022-12-22T23:44:39.988Z,11.05
2022-12-22T23:47:06.797Z,13.65
2022-12-22T23:49:33.304Z,12.85
2022-12-22T23:51:59.860Z,12.30
2022-12-22T23:54:26.386Z,12.85
2022-12-22T23:56:52.897Z,12.75
2022-12-22T23:59:19.431Z,12.35
